createdAt,value
2018-07-12T00:00:03.778Z,18.50
2018-07-12T00:01:03.693Z,17.30
2018-07-12T00:02:03.687Z,19.60
2018-07-12T00:03:03.673Z,18.10
2018-07-12T00:04:03.656Z,18.30
2018-07-12T00:05:03.712Z,17.20
2018-07-12T00:06:03.651Z,17.90
2018-07-12T00:07:03.626Z,17.30
2018-07-12T00:08:03.615Z,16.20
2018-07-12T00:09:03.607Z,17.20
2018-07-12T00:10:03.665Z,18.40
2018-07-12T00:11:03.584Z,17.10
2018-07-12T00:12:03.576Z,18.00
2018-07-12T00:13:03.568Z,20.20
2018-07-12T00:14:04.396Z,17.70
2018-07-12T00:15:03.598Z,17.40
2018-07-12T00:16:03.532Z,17.70
2018-07-12T00:17:03.524Z,16.60
2018-07-12T00:18:03.515Z,20.90
2018-07-12T00:19:03.495Z,17.00
2018-07-12T00:20:03.546Z,17.80
2018-07-12T00:21:03.475Z,17.80
2018-07-12T00:22:03.463Z,18.70
2018-07-12T00:23:03.454Z,19.30
2018-07-12T00:24:03.445Z,19.50
2018-07-12T00:25:03.498Z,19.10
2018-07-12T00:26:03.421Z,20.60
2018-07-12T00:27:03.409Z,19.10
2018-07-12T00:28:03.397Z,20.20
2018-07-12T00:29:03.403Z,20.90
2018-07-12T00:30:03.440Z,18.50
2018-07-12T00:31:03.389Z,19.50
2018-07-12T00:32:03.354Z,21.60
2018-07-12T00:33:03.349Z,21.70
2018-07-12T00:34:03.340Z,21.50
2018-07-12T00:35:10.959Z,21.80
2018-07-12T00:36:03.316Z,21.20
2018-07-12T00:37:03.311Z,22.20
2018-07-12T00:38:03.318Z,23.00
2018-07-12T00:39:03.283Z,20.90
2018-07-12T00:40:03.359Z,19.60
2018-07-12T00:41:03.312Z,20.50
2018-07-12T00:42:03.253Z,20.00
2018-07-12T00:43:03.241Z,20.50
2018-07-12T00:44:03.226Z,22.60
2018-07-12T00:45:03.295Z,21.80
2018-07-12T00:46:03.209Z,21.00
2018-07-12T00:47:03.198Z,19.50
2018-07-12T00:48:03.198Z,19.10
2018-07-12T00:49:03.184Z,22.30
2018-07-12T00:50:03.247Z,21.10
2018-07-12T00:51:03.164Z,22.60
2018-07-12T00:52:03.156Z,19.70
2018-07-12T00:53:03.131Z,22.60
2018-07-12T00:54:03.123Z,20.40
2018-07-12T00:55:03.186Z,21.40
2018-07-12T00:56:03.909Z,22.10
2018-07-12T00:57:03.098Z,22.00
2018-07-12T00:58:03.094Z,22.90
2018-07-12T00:59:03.070Z,23.60
2018-07-12T01:00:03.118Z,22.70
2018-07-12T01:01:03.047Z,25.30
2018-07-12T01:02:03.894Z,24.60
2018-07-12T01:03:03.027Z,21.50
2018-07-12T01:04:03.018Z,23.10
2018-07-12T01:05:03.005Z,25.60
2018-07-12T01:06:03.062Z,21.40
2018-07-12T01:07:02.993Z,22.50
2018-07-12T01:08:02.993Z,20.70
2018-07-12T01:09:02.968Z,24.50
2018-07-12T01:10:02.957Z,22.40
2018-07-12T01:11:03.002Z,22.70
2018-07-12T01:12:02.936Z,25.00
2018-07-12T01:13:02.929Z,22.30
2018-07-12T01:14:02.908Z,23.40
2018-07-12T01:15:02.902Z,23.60
2018-07-12T01:16:02.949Z,24.60
2018-07-12T01:17:03.387Z,24.00
2018-07-12T01:18:02.869Z,27.40
2018-07-12T01:19:02.862Z,26.50
2018-07-12T01:20:02.842Z,26.30
2018-07-12T01:21:02.903Z,25.20
2018-07-12T01:22:02.838Z,25.40
2018-07-12T01:23:02.811Z,24.60
2018-07-12T01:24:02.805Z,24.10
2018-07-12T01:25:02.796Z,26.40
2018-07-12T01:26:02.844Z,25.60
2018-07-12T01:27:02.772Z,26.10
2018-07-12T01:28:02.756Z,27.30
2018-07-12T01:29:02.745Z,26.40
2018-07-12T01:30:02.737Z,26.60
2018-07-12T01:31:02.799Z,27.20
2018-07-12T01:32:02.719Z,26.20
2018-07-12T01:33:02.714Z,29.00
2018-07-12T01:34:02.692Z,28.10
2018-07-12T01:35:02.683Z,26.70
2018-07-12T01:36:02.747Z,29.50
2018-07-12T01:37:02.669Z,28.90
2018-07-12T01:38:03.385Z,26.90
2018-07-12T01:39:02.642Z,29.70
2018-07-12T01:40:04.388Z,30.20
2018-07-12T01:41:02.683Z,26.50
2018-07-12T01:42:02.609Z,27.30
2018-07-12T01:43:02.595Z,30.00
2018-07-12T01:44:02.590Z,27.10
2018-07-12T01:45:02.576Z,29.40
2018-07-12T01:46:02.636Z,27.90
2018-07-12T01:47:02.551Z,29.70
2018-07-12T01:48:02.569Z,26.20
2018-07-12T01:49:02.529Z,27.40
2018-07-12T01:50:02.528Z,28.20
2018-07-12T01:51:02.576Z,21.80
2018-07-12T01:52:02.506Z,28.40
2018-07-12T01:53:02.492Z,27.70
2018-07-12T01:54:02.474Z,23.60
2018-07-12T01:55:02.465Z,23.00
2018-07-12T01:56:02.517Z,26.80
2018-07-12T01:57:02.449Z,24.00
2018-07-12T01:58:02.432Z,26.40
2018-07-12T01:59:03.388Z,21.20
2018-07-12T02:00:02.414Z,27.30
2018-07-12T02:01:02.470Z,22.40
2018-07-12T02:02:02.391Z,25.30
2018-07-12T02:03:02.381Z,27.70
2018-07-12T02:04:02.369Z,25.60
2018-07-12T02:05:02.366Z,27.40
2018-07-12T02:06:02.423Z,27.90
2018-07-12T02:07:02.338Z,26.80
2018-07-12T02:08:02.327Z,27.70
2018-07-12T02:09:02.316Z,28.60
2018-07-12T02:10:02.304Z,28.80
2018-07-12T02:11:02.373Z,28.70
2018-07-12T02:12:02.283Z,31.10
2018-07-12T02:13:02.279Z,30.50
2018-07-12T02:14:02.263Z,26.30
2018-07-12T02:15:02.253Z,24.80
2018-07-12T02:16:02.305Z,26.20
2018-07-12T02:17:02.276Z,23.30
2018-07-12T02:18:02.217Z,27.50
2018-07-12T02:19:02.218Z,25.80
2018-07-12T02:20:02.884Z,31.10
2018-07-12T02:21:02.250Z,28.40
2018-07-12T02:22:02.175Z,30.60
2018-07-12T02:23:02.161Z,28.40
2018-07-12T02:24:02.163Z,29.80
2018-07-12T02:25:02.150Z,26.10
2018-07-12T02:26:02.202Z,29.20
2018-07-12T02:27:02.124Z,26.30
2018-07-12T02:28:02.112Z,30.80
2018-07-12T02:29:02.098Z,25.30
2018-07-12T02:30:02.090Z,32.40
2018-07-12T02:31:02.137Z,30.90
2018-07-12T02:32:02.086Z,29.80
2018-07-12T02:33:02.057Z,30.60
2018-07-12T02:34:02.051Z,28.10
2018-07-12T02:35:02.109Z,29.50
2018-07-12T02:36:02.088Z,25.70
2018-07-12T02:37:02.021Z,25.70
2018-07-12T02:38:02.007Z,29.00
2018-07-12T02:39:01.993Z,25.50
2018-07-12T02:40:01.991Z,27.50
2018-07-12T02:41:05.453Z,30.60
2018-07-12T02:42:01.960Z,28.50
2018-07-12T02:43:01.949Z,23.50
2018-07-12T02:44:01.948Z,27.10
2018-07-12T02:45:01.927Z,25.90
2018-07-12T02:46:01.995Z,26.60
2018-07-12T02:47:01.908Z,27.80
2018-07-12T02:48:01.900Z,26.20
2018-07-12T02:49:01.914Z,34.70
2018-07-12T02:50:01.875Z,33.40
2018-07-12T02:51:01.871Z,28.10
2018-07-12T02:52:01.923Z,27.70
2018-07-12T02:53:01.844Z,30.50
2018-07-12T02:54:01.854Z,27.70
2018-07-12T02:55:01.821Z,30.60
2018-07-12T02:56:01.830Z,28.00
2018-07-12T02:57:01.863Z,30.50
2018-07-12T02:58:01.796Z,25.40
2018-07-12T02:59:01.783Z,27.50
2018-07-12T03:00:01.766Z,26.00
2018-07-12T03:01:01.756Z,32.00
2018-07-12T03:02:01.954Z,30.90
2018-07-12T03:03:01.739Z,33.70
2018-07-12T03:04:01.725Z,27.00
2018-07-12T03:05:01.715Z,31.00
2018-07-12T03:06:01.705Z,28.60
2018-07-12T03:07:01.755Z,31.80
2018-07-12T03:08:01.692Z,25.50
2018-07-12T03:09:01.668Z,33.90
2018-07-12T03:10:01.662Z,31.50
2018-07-12T03:11:01.667Z,28.60
2018-07-12T03:12:01.712Z,33.80
2018-07-12T03:13:01.630Z,33.70
2018-07-12T03:14:01.619Z,27.40
2018-07-12T03:15:01.609Z,31.00
2018-07-12T03:16:01.595Z,33.70
2018-07-12T03:17:01.648Z,34.40
2018-07-12T03:18:01.573Z,27.60
2018-07-12T03:19:01.567Z,27.00
2018-07-12T03:20:01.555Z,26.50
2018-07-12T03:21:01.537Z,33.00
2018-07-12T03:22:01.606Z,30.20
2018-07-12T03:23:02.377Z,29.90
2018-07-12T03:24:01.513Z,29.50
2018-07-12T03:25:01.499Z,30.00
2018-07-12T03:26:01.490Z,35.30
2018-07-12T03:27:01.538Z,27.90
2018-07-12T03:28:01.463Z,30.50
2018-07-12T03:29:02.382Z,29.20
2018-07-12T03:30:01.443Z,34.90
2018-07-12T03:31:01.436Z,36.40
2018-07-12T03:32:09.029Z,35.90
2018-07-12T03:33:09.585Z,32.70
2018-07-12T03:34:09.569Z,33.30
2018-07-12T03:35:09.574Z,32.00
2018-07-12T03:36:01.447Z,30.00
2018-07-12T03:37:01.436Z,39.60
2018-07-12T03:38:01.373Z,33.10
2018-07-12T03:39:01.359Z,30.40
2018-07-12T03:40:09.445Z,35.10
2018-07-12T03:41:09.473Z,32.30
2018-07-12T03:42:09.589Z,29.10
2018-07-12T03:43:08.852Z,29.00
2018-07-12T03:44:08.831Z,23.30
2018-07-12T03:45:08.822Z,29.10
2018-07-12T03:46:01.267Z,33.90
2018-07-12T03:47:01.347Z,28.20
2018-07-12T03:48:01.258Z,35.70
2018-07-12T03:49:01.240Z,34.40
2018-07-12T03:50:01.227Z,31.20
2018-07-12T03:51:01.224Z,37.20
2018-07-12T03:52:01.276Z,31.60
2018-07-12T03:53:01.200Z,34.90
2018-07-12T03:54:01.180Z,32.80
2018-07-12T03:55:01.754Z,34.60
2018-07-12T03:56:01.166Z,39.60
2018-07-12T03:57:01.249Z,40.00
2018-07-12T03:58:01.201Z,31.50
2018-07-12T03:59:01.131Z,38.80
2018-07-12T04:00:01.128Z,36.80
2018-07-12T04:01:01.109Z,35.80
2018-07-12T04:02:01.335Z,35.60
2018-07-12T04:03:01.084Z,36.60
2018-07-12T04:04:01.070Z,35.70
2018-07-12T04:05:01.061Z,31.50
2018-07-12T04:06:01.053Z,32.20
2018-07-12T04:07:01.103Z,34.50
2018-07-12T04:08:01.029Z,32.70
2018-07-12T04:09:01.017Z,35.00
2018-07-12T04:10:01.012Z,30.10
2018-07-12T04:11:01.053Z,31.80
2018-07-12T04:12:01.056Z,31.00
2018-07-12T04:13:00.973Z,27.60
2018-07-12T04:14:00.965Z,35.40
2018-07-12T04:15:00.964Z,32.90
2018-07-12T04:16:03.749Z,30.20
2018-07-12T04:17:00.998Z,32.20
2018-07-12T04:18:00.921Z,29.20
2018-07-12T04:19:00.916Z,29.60
2018-07-12T04:20:00.906Z,35.00
2018-07-12T04:21:00.890Z,26.80
2018-07-12T04:22:00.943Z,28.80
2018-07-12T04:23:00.868Z,31.10
2018-07-12T04:24:00.854Z,28.20
2018-07-12T04:25:00.846Z,27.40
2018-07-12T04:26:00.837Z,31.90
2018-07-12T04:27:00.887Z,27.60
2018-07-12T04:28:00.815Z,27.80
2018-07-12T04:29:00.802Z,24.50
2018-07-12T04:30:00.794Z,27.90
2018-07-12T04:31:00.781Z,31.80
2018-07-12T04:32:00.782Z,29.90
2018-07-12T04:33:00.827Z,31.60
2018-07-12T04:34:00.750Z,27.50
2018-07-12T04:35:00.740Z,28.60
2018-07-12T04:36:00.728Z,28.80
2018-07-12T04:37:01.260Z,26.50
2018-07-12T04:38:00.775Z,31.00
2018-07-12T04:39:00.694Z,26.80
2018-07-12T04:40:00.683Z,28.80
2018-07-12T04:41:00.672Z,27.60
2018-07-12T04:42:00.659Z,33.30
2018-07-12T04:43:00.720Z,27.10
2018-07-12T04:44:00.647Z,25.70
2018-07-12T04:45:00.628Z,27.90
2018-07-12T04:46:00.633Z,31.60
2018-07-12T04:47:00.614Z,28.90
2018-07-12T04:48:00.661Z,24.50
2018-07-12T04:49:00.592Z,24.60
2018-07-12T04:50:00.594Z,27.30
2018-07-12T04:51:00.572Z,28.50
2018-07-12T04:52:00.556Z,26.90
2018-07-12T04:53:00.627Z,26.20
2018-07-12T04:54:00.529Z,26.00
2018-07-12T04:55:00.533Z,25.20
2018-07-12T04:56:00.507Z,27.80
2018-07-12T04:57:00.543Z,27.70
2018-07-12T04:58:00.829Z,28.40
2018-07-12T04:59:00.476Z,30.30
2018-07-12T05:00:00.489Z,29.60
2018-07-12T05:01:00.475Z,28.10
2018-07-12T05:02:00.443Z,29.60
2018-07-12T05:03:00.504Z,30.80
2018-07-12T05:04:00.426Z,29.60
2018-07-12T05:05:00.419Z,31.10
2018-07-12T05:06:00.404Z,27.00
2018-07-12T05:07:00.406Z,28.30
2018-07-12T05:08:00.477Z,27.00
2018-07-12T05:09:00.368Z,30.30
2018-07-12T05:10:00.365Z,29.80
2018-07-12T05:11:00.363Z,30.10
2018-07-12T05:12:00.341Z,32.00
2018-07-12T05:13:00.393Z,29.10
2018-07-12T05:14:00.316Z,25.50
2018-07-12T05:15:00.313Z,28.40
2018-07-12T05:16:00.296Z,26.60
2018-07-12T05:17:00.288Z,29.00
2018-07-12T05:18:00.349Z,29.00
2018-07-12T05:19:01.267Z,30.60
2018-07-12T05:20:00.255Z,31.10
2018-07-12T05:21:00.241Z,30.10
2018-07-12T05:22:00.244Z,32.60
2018-07-12T05:23:00.287Z,30.90
2018-07-12T05:24:00.212Z,29.40
2018-07-12T05:25:00.226Z,29.70
2018-07-12T05:26:00.196Z,28.40
2018-07-12T05:27:00.189Z,29.20
2018-07-12T05:28:00.231Z,28.20
2018-07-12T05:29:00.168Z,28.10
2018-07-12T05:30:00.142Z,31.60
2018-07-12T05:31:00.131Z,27.20
2018-07-12T05:32:00.122Z,26.50
2018-07-12T05:33:00.188Z,30.90
2018-07-12T05:34:00.106Z,30.20
2018-07-12T05:35:00.092Z,33.20
2018-07-12T05:36:00.085Z,28.90
2018-07-12T05:37:00.071Z,28.30
2018-07-12T05:38:00.117Z,33.50
2018-07-12T05:39:00.096Z,27.30
2018-07-12T05:40:00.738Z,30.00
2018-07-12T05:41:00.024Z,26.80
2018-07-12T05:42:00.038Z,29.60
2018-07-12T05:43:00.081Z,29.40
2018-07-12T05:43:59.990Z,28.20
2018-07-12T05:44:59.984Z,29.80
2018-07-12T05:45:59.972Z,34.30
2018-07-12T05:46:59.967Z,30.10
2018-07-12T05:48:00.016Z,27.80
2018-07-12T05:48:59.942Z,26.40
2018-07-12T05:49:59.931Z,26.60
2018-07-12T05:50:59.920Z,30.50
2018-07-12T05:51:59.909Z,30.40
2018-07-12T05:52:59.974Z,29.20
2018-07-12T05:53:59.890Z,32.10
2018-07-12T05:54:59.892Z,28.00
2018-07-12T05:55:59.865Z,30.40
2018-07-12T05:56:59.857Z,29.90
2018-07-12T05:57:59.906Z,29.30
2018-07-12T05:58:59.842Z,30.20
2018-07-12T05:59:59.823Z,28.30
2018-07-12T06:01:00.740Z,32.10
2018-07-12T06:01:59.804Z,30.00
2018-07-12T06:03:00.339Z,23.40
2018-07-12T06:03:59.783Z,29.90
2018-07-12T06:04:59.779Z,28.20
2018-07-12T06:05:59.765Z,29.10
2018-07-12T06:07:00.747Z,28.90
2018-07-12T06:07:59.804Z,29.20
2018-07-12T06:08:59.729Z,30.90
2018-07-12T06:09:59.720Z,29.20
2018-07-12T06:10:59.712Z,32.10
2018-07-12T06:11:59.702Z,29.10
2018-07-12T06:12:59.759Z,26.90
2018-07-12T06:13:59.679Z,26.60
2018-07-12T06:14:59.678Z,25.20
2018-07-12T06:15:59.684Z,25.60
2018-07-12T06:16:59.655Z,27.60
2018-07-12T06:17:59.710Z,28.00
2018-07-12T06:18:59.671Z,24.70
2018-07-12T06:19:59.611Z,26.80
2018-07-12T06:20:59.607Z,26.10
2018-07-12T06:22:00.242Z,29.80
2018-07-12T06:22:59.657Z,29.70
2018-07-12T06:23:59.569Z,30.40
2018-07-12T06:24:59.561Z,30.10
2018-07-12T06:25:59.550Z,29.20
2018-07-12T06:26:59.539Z,32.20
2018-07-12T06:27:59.529Z,29.80
2018-07-12T06:28:59.591Z,27.10
2018-07-12T06:29:59.539Z,25.80
2018-07-12T06:30:59.497Z,27.10
2018-07-12T06:31:59.486Z,28.60
2018-07-12T06:32:59.472Z,30.50
2018-07-12T06:33:59.527Z,28.80
2018-07-12T06:34:59.447Z,28.50
2018-07-12T06:35:59.462Z,27.60
2018-07-12T06:36:59.430Z,36.00
2018-07-12T06:37:59.417Z,42.70
2018-07-12T06:38:59.479Z,50.10
2018-07-12T06:39:59.394Z,45.40
2018-07-12T06:40:59.392Z,40.00
2018-07-12T06:41:59.385Z,37.70
2018-07-12T06:43:00.241Z,31.30
2018-07-12T06:43:59.461Z,33.60
2018-07-12T06:44:59.350Z,37.10
2018-07-12T06:45:59.339Z,37.60
2018-07-12T06:46:59.328Z,38.80
2018-07-12T06:47:59.311Z,35.10
2018-07-12T06:48:59.367Z,35.10
2018-07-12T06:49:59.289Z,37.00
2018-07-12T06:50:59.282Z,36.70
2018-07-12T06:51:59.270Z,38.30
2018-07-12T06:52:59.267Z,38.80
2018-07-12T06:53:59.311Z,38.70
2018-07-12T06:54:59.234Z,37.50
2018-07-12T06:55:59.226Z,41.30
2018-07-12T06:56:59.213Z,44.10
2018-07-12T06:58:22.760Z,46.20
2018-07-12T06:58:59.259Z,46.10
2018-07-12T06:59:59.190Z,46.40
2018-07-12T07:00:59.193Z,52.00
2018-07-12T07:01:59.165Z,47.90
2018-07-12T07:02:59.157Z,48.80
2018-07-12T07:03:59.821Z,48.30
2018-07-12T07:04:59.145Z,50.20
2018-07-12T07:05:59.158Z,50.20
2018-07-12T07:06:59.104Z,49.40
2018-07-12T07:07:59.100Z,45.40
2018-07-12T07:08:59.146Z,52.20
2018-07-12T07:09:59.110Z,52.80
2018-07-12T07:10:59.069Z,54.20
2018-07-12T07:11:59.071Z,48.20
2018-07-12T07:12:59.055Z,55.00
2018-07-12T07:13:59.122Z,53.90
2018-07-12T07:14:59.030Z,53.10
2018-07-12T07:15:59.024Z,59.70
2018-07-12T07:16:59.000Z,51.60
2018-07-12T07:17:58.991Z,55.70
2018-07-12T07:18:59.047Z,58.50
2018-07-12T07:19:58.966Z,58.40
2018-07-12T07:21:06.480Z,65.80
2018-07-12T07:22:07.064Z,60.70
2018-07-12T07:22:58.939Z,58.20
2018-07-12T07:23:58.990Z,62.30
2018-07-12T07:24:58.914Z,56.60
2018-07-12T07:25:58.917Z,57.80
2018-07-12T07:26:58.895Z,61.00
2018-07-12T07:27:58.884Z,62.00
2018-07-12T07:28:58.936Z,60.10
2018-07-12T07:29:58.865Z,60.30
2018-07-12T07:30:58.868Z,63.40
2018-07-12T07:32:06.944Z,62.00
2018-07-12T07:33:11.891Z,61.20
2018-07-12T07:33:58.905Z,60.40
2018-07-12T07:34:58.813Z,57.40
2018-07-12T07:35:59.399Z,57.40
2018-07-12T07:36:58.785Z,58.40
2018-07-12T07:37:58.779Z,59.40
2018-07-12T07:38:58.824Z,59.80
2018-07-12T07:39:58.759Z,60.80
2018-07-12T07:40:58.770Z,59.00
2018-07-12T07:41:58.730Z,59.80
2018-07-12T07:42:58.748Z,61.70
2018-07-12T07:43:58.771Z,58.60
2018-07-12T07:44:58.704Z,60.90
2018-07-12T07:45:58.689Z,61.10
2018-07-12T07:47:06.211Z,57.40
2018-07-12T07:47:58.674Z,59.40
2018-07-12T07:48:58.740Z,54.00
2018-07-12T07:49:58.642Z,59.50
2018-07-12T07:50:58.635Z,58.50
2018-07-12T07:51:58.624Z,58.60
2018-07-12T07:52:58.613Z,59.00
2018-07-12T07:53:59.516Z,60.10
2018-07-12T07:54:58.599Z,60.70
2018-07-12T07:55:58.577Z,56.60
2018-07-12T07:56:58.607Z,55.90
2018-07-12T07:57:58.571Z,54.30
2018-07-12T07:58:58.624Z,55.00
2018-07-12T07:59:58.541Z,52.00
2018-07-12T08:00:58.541Z,55.10
2018-07-12T08:01:58.516Z,51.70
2018-07-12T08:02:58.506Z,53.40
2018-07-12T08:03:58.510Z,52.60
2018-07-12T08:04:58.549Z,52.70
2018-07-12T08:05:58.475Z,50.40
2018-07-12T08:06:58.472Z,51.90
2018-07-12T08:07:58.455Z,55.70
2018-07-12T08:08:58.444Z,55.40
2018-07-12T08:09:58.494Z,53.60
2018-07-12T08:10:58.481Z,53.10
2018-07-12T08:11:58.413Z,54.40
2018-07-12T08:12:58.402Z,51.50
2018-07-12T08:13:58.395Z,57.70
2018-07-12T08:14:58.489Z,52.50
2018-07-12T08:15:58.372Z,56.40
2018-07-12T08:16:58.364Z,56.30
2018-07-12T08:17:58.360Z,53.60
2018-07-12T08:18:58.342Z,54.70
2018-07-12T08:19:58.389Z,52.60
2018-07-12T08:20:58.318Z,52.00
2018-07-12T08:21:58.320Z,56.10
2018-07-12T08:22:58.345Z,57.70
2018-07-12T08:23:58.289Z,55.90
2018-07-12T08:24:58.348Z,47.30
2018-07-12T08:25:58.267Z,54.50
2018-07-12T08:26:58.253Z,54.20
2018-07-12T08:27:58.245Z,56.20
2018-07-12T08:28:58.234Z,52.30
2018-07-12T08:29:58.292Z,54.40
2018-07-12T08:30:58.225Z,58.50
2018-07-12T08:31:58.204Z,56.50
2018-07-12T08:32:58.195Z,57.60
2018-07-12T08:33:58.186Z,58.00
2018-07-12T08:34:58.236Z,55.80
2018-07-12T08:35:58.919Z,53.60
2018-07-12T08:36:58.169Z,52.50
2018-07-12T08:37:58.142Z,54.40
2018-07-12T08:39:00.649Z,54.20
2018-07-12T08:40:02.538Z,51.70
2018-07-12T08:40:58.109Z,55.50
2018-07-12T08:42:00.147Z,50.40
2018-07-12T08:42:58.121Z,53.10
2018-07-12T08:43:58.128Z,55.00
2018-07-12T08:44:58.141Z,55.10
2018-07-12T08:45:58.059Z,56.10
2018-07-12T08:46:58.056Z,55.50
2018-07-12T08:47:58.034Z,54.10
2018-07-12T08:48:58.026Z,54.20
2018-07-12T08:49:58.078Z,54.70
2018-07-12T08:50:58.001Z,50.00
2018-07-12T08:51:57.992Z,53.10
2018-07-12T08:52:58.018Z,51.70
2018-07-12T08:53:57.977Z,49.70
2018-07-12T08:54:58.034Z,45.10
2018-07-12T08:55:57.953Z,49.30
2018-07-12T08:56:58.921Z,50.60
2018-07-12T08:57:57.929Z,48.70
2018-07-12T08:58:57.923Z,49.60
2018-07-12T08:59:57.978Z,49.90
2018-07-12T09:00:57.901Z,46.50
2018-07-12T09:01:57.911Z,46.20
2018-07-12T09:02:57.886Z,49.10
2018-07-12T09:03:57.874Z,49.90
2018-07-12T09:04:57.925Z,48.70
2018-07-12T09:05:57.851Z,50.20
2018-07-12T09:06:57.837Z,49.50
2018-07-12T09:07:57.830Z,48.90
2018-07-12T09:08:57.815Z,50.60
2018-07-12T09:09:57.868Z,48.60
2018-07-12T09:10:57.793Z,49.30
2018-07-12T09:11:57.788Z,50.50
2018-07-12T09:12:57.773Z,47.90
2018-07-12T09:13:57.765Z,47.40
2018-07-12T09:14:57.812Z,47.40
2018-07-12T09:15:57.743Z,52.70
2018-07-12T09:16:57.733Z,50.40
2018-07-12T09:17:58.421Z,45.20
2018-07-12T09:18:57.718Z,50.40
2018-07-12T09:19:57.763Z,50.70
2018-07-12T09:20:57.690Z,52.20
2018-07-12T09:21:57.687Z,51.40
2018-07-12T09:22:57.674Z,47.00
2018-07-12T09:23:57.658Z,47.10
2018-07-12T09:24:57.993Z,49.40
2018-07-12T09:25:57.644Z,48.10
2018-07-12T09:26:57.629Z,46.90
2018-07-12T09:27:57.616Z,46.50
2018-07-12T09:28:57.675Z,47.80
2018-07-12T09:29:57.658Z,45.10
2018-07-12T09:30:57.587Z,43.30
2018-07-12T09:31:57.572Z,44.90
2018-07-12T09:32:57.569Z,47.60
2018-07-12T09:33:57.554Z,47.00
2018-07-12T09:34:57.676Z,46.20
2018-07-12T09:35:57.534Z,44.70
2018-07-12T09:36:57.971Z,43.90
2018-07-12T09:37:57.514Z,42.80
2018-07-12T09:38:58.422Z,40.00
2018-07-12T09:39:57.570Z,44.60
2018-07-12T09:40:57.484Z,44.90
2018-07-12T09:41:57.470Z,43.00
2018-07-12T09:42:57.531Z,43.20
2018-07-12T09:43:57.453Z,41.80
2018-07-12T09:44:57.460Z,41.80
2018-07-12T09:45:57.504Z,43.60
2018-07-12T09:46:57.455Z,45.00
2018-07-12T09:47:57.419Z,45.20
2018-07-12T09:48:57.404Z,48.10
2018-07-12T09:49:57.384Z,47.00
2018-07-12T09:50:57.442Z,47.60
2018-07-12T09:51:57.378Z,47.10
2018-07-12T09:52:57.356Z,45.30
2018-07-12T09:53:57.351Z,45.40
2018-07-12T09:54:57.339Z,47.40
2018-07-12T09:55:57.462Z,43.50
2018-07-12T09:56:57.315Z,46.90
2018-07-12T09:57:57.593Z,45.50
2018-07-12T09:58:57.303Z,45.90
2018-07-12T09:59:57.931Z,46.60
2018-07-12T10:00:57.334Z,47.40
2018-07-12T10:01:57.260Z,48.90
2018-07-12T10:02:57.251Z,47.20
2018-07-12T10:03:57.237Z,49.30
2018-07-12T10:04:57.243Z,46.00
2018-07-12T10:05:57.279Z,47.30
2018-07-12T10:06:57.214Z,50.80
2018-07-12T10:07:57.198Z,52.70
2018-07-12T10:08:57.187Z,49.80
2018-07-12T10:09:57.182Z,51.10
2018-07-12T10:10:57.235Z,50.90
2018-07-12T10:11:57.162Z,50.30
2018-07-12T10:12:57.151Z,50.00
2018-07-12T10:13:57.147Z,50.20
2018-07-12T10:14:57.132Z,51.50
2018-07-12T10:15:57.195Z,47.20
2018-07-12T10:16:57.110Z,46.10
2018-07-12T10:17:57.105Z,46.40
2018-07-12T10:18:57.090Z,48.40
2018-07-12T10:19:57.088Z,47.00
2018-07-12T10:20:57.500Z,46.20
2018-07-12T10:21:57.065Z,47.10
2018-07-12T10:22:57.054Z,47.60
2018-07-12T10:23:57.045Z,46.80
2018-07-12T10:24:57.034Z,47.80
2018-07-12T10:25:57.087Z,46.00
2018-07-12T10:26:57.023Z,44.40
2018-07-12T10:27:57.007Z,45.60
2018-07-12T10:28:56.998Z,45.40
2018-07-12T10:29:56.984Z,45.60
2018-07-12T10:30:57.059Z,47.20
2018-07-12T10:31:56.967Z,47.50
2018-07-12T10:32:56.958Z,45.70
2018-07-12T10:33:56.948Z,45.20
2018-07-12T10:34:56.942Z,47.40
2018-07-12T10:35:56.992Z,48.20
2018-07-12T10:36:56.939Z,42.40
2018-07-12T10:37:56.909Z,42.70
2018-07-12T10:38:56.909Z,41.20
2018-07-12T10:39:56.901Z,40.30
2018-07-12T10:40:56.953Z,39.30
2018-07-12T10:41:57.432Z,39.30
2018-07-12T10:42:56.864Z,40.80
2018-07-12T10:43:56.860Z,39.50
2018-07-12T10:44:56.856Z,41.70
2018-07-12T10:45:56.914Z,43.70
2018-07-12T10:46:56.855Z,40.50
2018-07-12T10:47:56.817Z,44.80
2018-07-12T10:48:56.809Z,43.50
2018-07-12T10:49:56.798Z,45.30
2018-07-12T10:50:56.847Z,44.20
2018-07-12T10:51:56.775Z,40.90
2018-07-12T10:52:56.775Z,45.00
2018-07-12T10:53:56.761Z,44.00
2018-07-12T10:54:56.750Z,43.00
2018-07-12T10:55:56.813Z,42.60
2018-07-12T10:56:56.733Z,42.90
2018-07-12T10:57:56.725Z,42.40
2018-07-12T10:58:56.734Z,37.10
2018-07-12T11:00:04.391Z,38.20
2018-07-12T11:00:56.764Z,36.50
2018-07-12T11:01:56.692Z,40.20
2018-07-12T11:02:56.677Z,40.70
2018-07-12T11:03:56.669Z,38.00
2018-07-12T11:04:56.658Z,40.40
2018-07-12T11:05:56.732Z,40.70
2018-07-12T11:06:56.655Z,42.80
2018-07-12T11:07:57.550Z,45.70
2018-07-12T11:08:56.688Z,41.40
2018-07-12T11:09:56.635Z,40.30
2018-07-12T11:10:57.048Z,39.80
2018-07-12T11:11:57.469Z,40.50
2018-07-12T11:12:56.605Z,34.10
2018-07-12T11:13:56.575Z,35.10
2018-07-12T11:14:56.580Z,34.30
2018-07-12T11:15:56.628Z,33.00
2018-07-12T11:16:56.553Z,34.30
2018-07-12T11:18:05.615Z,31.00
2018-07-12T11:18:56.530Z,30.80
2018-07-12T11:19:56.549Z,31.70
2018-07-12T11:20:56.591Z,31.20
2018-07-12T11:21:56.503Z,31.00
2018-07-12T11:22:56.494Z,30.20
2018-07-12T11:23:56.487Z,31.00
2018-07-12T11:24:56.477Z,29.00
2018-07-12T11:25:56.509Z,30.50
2018-07-12T11:26:56.519Z,28.10
2018-07-12T11:27:56.447Z,30.80
2018-07-12T11:28:56.433Z,30.50
2018-07-12T11:29:56.428Z,28.00
2018-07-12T11:30:56.417Z,28.90
2018-07-12T11:31:56.496Z,26.10
2018-07-12T11:32:56.399Z,27.90
2018-07-12T11:33:56.420Z,27.30
2018-07-12T11:34:56.382Z,26.70
2018-07-12T11:35:56.374Z,25.60
2018-07-12T11:36:56.458Z,25.30
2018-07-12T11:37:56.352Z,27.00
2018-07-12T11:38:57.011Z,26.60
2018-07-12T11:39:56.338Z,27.00
2018-07-12T11:40:56.332Z,26.40
2018-07-12T11:41:56.387Z,26.00
2018-07-12T11:42:56.319Z,26.10
2018-07-12T11:43:56.297Z,25.00
2018-07-12T11:44:56.288Z,25.00
2018-07-12T11:45:56.281Z,23.80
2018-07-12T11:46:56.361Z,24.60
2018-07-12T11:47:56.258Z,22.50
2018-07-12T11:48:56.249Z,25.00
2018-07-12T11:49:56.244Z,27.00
2018-07-12T11:50:56.291Z,26.20
2018-07-12T11:51:56.288Z,24.20
2018-07-12T11:52:56.223Z,28.60
2018-07-12T11:53:56.211Z,27.80
2018-07-12T11:54:56.194Z,26.10
2018-07-12T11:55:56.188Z,23.80
2018-07-12T11:56:56.246Z,26.40
2018-07-12T11:57:56.171Z,26.70
2018-07-12T11:58:56.167Z,25.10
2018-07-12T11:59:57.011Z,25.60
2018-07-12T12:00:56.139Z,24.10
2018-07-12T12:01:56.250Z,24.80
2018-07-12T12:02:56.133Z,22.50
2018-07-12T12:03:56.114Z,23.90
2018-07-12T12:04:56.105Z,24.10
2018-07-12T12:05:56.094Z,23.30
2018-07-12T12:06:56.176Z,22.90
2018-07-12T12:07:56.077Z,22.30
2018-07-12T12:08:56.069Z,22.70
2018-07-12T12:09:56.055Z,24.20
2018-07-12T12:10:56.044Z,27.50
2018-07-12T12:11:56.134Z,29.80
2018-07-12T12:12:56.035Z,29.40
2018-07-12T12:13:56.020Z,28.50
2018-07-12T12:14:56.035Z,28.30
2018-07-12T12:15:56.009Z,28.40
2018-07-12T12:16:56.052Z,30.00
2018-07-12T12:17:56.547Z,28.00
2018-07-12T12:18:55.966Z,29.10
2018-07-12T12:19:55.958Z,29.10
2018-07-12T12:20:56.519Z,29.30
2018-07-12T12:21:56.005Z,26.70
2018-07-12T12:22:55.928Z,29.30
2018-07-12T12:23:55.937Z,26.50
2018-07-12T12:24:55.916Z,23.10
2018-07-12T12:25:55.899Z,24.00
2018-07-12T12:26:55.976Z,21.60
2018-07-12T12:27:55.975Z,21.30
2018-07-12T12:28:55.882Z,23.10
2018-07-12T12:30:04.102Z,22.50
2018-07-12T12:30:55.858Z,22.60
2018-07-12T12:31:55.918Z,23.80
2018-07-12T12:32:55.840Z,22.60
2018-07-12T12:34:00.753Z,26.50
2018-07-12T12:35:05.841Z,26.30
2018-07-12T12:35:55.938Z,25.40
2018-07-12T12:36:55.884Z,25.10
2018-07-12T12:37:55.794Z,24.10
2018-07-12T12:38:55.786Z,24.80
2018-07-12T12:39:55.787Z,26.40
2018-07-12T12:40:55.768Z,27.20
2018-07-12T12:41:55.868Z,26.40
2018-07-12T12:42:55.749Z,27.60
2018-07-12T12:43:55.740Z,27.60
2018-07-12T12:44:55.738Z,29.20
2018-07-12T12:45:55.721Z,25.60
2018-07-12T12:46:55.777Z,27.20
2018-07-12T12:47:55.704Z,25.40
2018-07-12T12:48:55.699Z,26.60
2018-07-12T12:49:55.684Z,24.10
2018-07-12T12:50:55.747Z,25.90
2018-07-12T12:51:55.747Z,24.40